Clayton Township, Michigan
Current Conditions -  °F | °C
As of 11:53 AM on Thursday 27 Nov 2014 (Local Time) from KADG Reporting Station
Overcast Overcast  
Wind Chill: 22°   Ceiling: 2400
Heat Index: 31°   Visibility: 10mi
Dew Point: 23°   Wind: 10mph
Humidity: 72%   Direction: 290°WNW
Pressure: 30.19"   Gusts: NA
Location:  41.8643°N, 84.2151°W
Report Text: KADG 271653Z AUTO 29009KT 10SM BKN024 BKN029 OVC060 M01/M05 A3019 RMK AO2 SLP234 T10061050
Loading
Personal Weather Stations






























Interactive Weather Map New forecast layout! Learn more

10-Day Weather Forecast

Advertisements
Track Severe Weather on mobile